METAR Data
IDs: Format: Raw Decoded Include TAF

Data at: 1002 UTC 16 Jul 2019

METAR for:KPUB (Pueblo Mem Arpt, CO, US)
Text:KPUB 160953Z AUTO 36005KT 10SM CLR 19/14 A3007 RMK AO2 SLP106 T01890139
Temperature: 18.9°C ( 66°F)
Dewpoint: 13.9°C ( 57°F) [RH = 73%]
Pressure (altimeter):30.07 inches Hg (1018.4 mb) [Sea level pressure: 1010.6 mb]
Winds:from the N (360 degrees) at 6 MPH (5 knots; 2.6 m/s)
Visibility:10 or more sm (16+ km)
Ceiling:at least 12,000 feet AGL
Clouds:sky clear below 12,000 feet AGL
QC Flag:automated observation with no human augmentation